Time;durP1;ratioP1;P1;durP2;ratioP2;P2;SDS_P1;SDS_P2;PMS_P1;PMS_P2;Temp;Humidity;BMP_temperature;BMP_pressure;BME280_temperature;BME280_humidity;BME280_pressure;Samples;Min_cycle;Max_cycle;Signal;HPM_P1;HPM_P2
2022/12/22 03:27:25;;;;;;;11.30;6.67;;;2.00;99.90;;;;;;4966830;28;20183;-89
2022/12/22 03:29:50;;;;;;;9.47;4.83;;;2.00;99.90;;;;;;4961333;28;20182;-89
2022/12/22 03:32:16;;;;;;;8.87;6.27;;;2.00;99.90;;;;;;4961643;28;20178;-88
2022/12/22 03:34:42;;;;;;;17.33;5.93;;;2.00;99.90;;;;;;4960747;28;20627;-89
2022/12/22 03:37:07;;;;;;;11.03;6.63;;;2.00;99.90;;;;;;4945014;28;20190;-88
2022/12/22 03:39:33;;;;;;;22.13;6.10;;;2.00;99.90;;;;;;4961108;28;20196;-89
2022/12/22 03:47:26;;;;;;;11.80;6.37;;;2.00;99.90;;;;;;4994088;28;20176;-89
2022/12/22 03:49:52;;;;;;;18.97;7.57;;;2.00;99.90;;;;;;4994398;28;20212;-89
2022/12/22 03:52:18;;;;;;;17.87;6.83;;;2.00;99.90;;;;;;4945136;28;20186;-89
2022/12/22 03:54:43;;;;;;;10.53;6.57;;;2.00;99.90;;;;;;4960950;28;20233;-89
2022/12/22 03:57:09;;;;;;;6.67;4.83;;;2.00;99.90;;;;;;4994288;28;20190;-88
2022/12/22 03:59:35;;;;;;;20.40;7.67;;;2.10;99.90;;;;;;4961784;28;20187;-88
2022/12/22 04:02:00;;;;;;;9.10;4.57;;;2.10;99.90;;;;;;4968359;28;20242;-86
2022/12/22 04:04:26;;;;;;;13.70;7.13;;;2.00;99.90;;;;;;4941901;28;20273;-89
2022/12/22 04:06:53;;;;;;;9.43;4.87;;;2.10;99.90;;;;;;4941351;28;20247;-89
2022/12/22 04:09:21;;;;;;;9.97;6.67;;;2.20;99.90;;;;;;4974629;28;20189;-89
2022/12/22 04:14:30;;;;;;;17.43;6.83;;;2.10;99.90;;;;;;4946356;28;20237;-88
2022/12/22 04:16:56;;;;;;;14.83;8.47;;;2.10;99.90;;;;;;4974319;28;20188;-86
2022/12/22 04:19:23;;;;;;;15.30;8.17;;;2.00;99.90;;;;;;4941658;28;20270;-87
2022/12/22 04:21:49;;;;;;;15.07;8.47;;;2.00;99.90;;;;;;4957046;28;20183;-87
2022/12/22 04:24:15;;;;;;;12.07;7.60;;;2.00;99.90;;;;;;4974614;28;20192;-86
2022/12/22 04:26:41;;;;;;;12.10;7.83;;;2.00;99.90;;;;;;4957824;28;20210;-86
2022/12/22 04:29:06;;;;;;;6.63;4.90;;;2.00;99.90;;;;;;4975053;28;20190;-88
2022/12/22 04:31:32;;;;;;;18.60;9.83;;;2.00;99.90;;;;;;4942181;28;20662;-88
2022/12/22 04:33:58;;;;;;;9.83;5.70;;;2.00;99.90;;;;;;4942321;28;20741;-88
2022/12/22 04:36:23;;;;;;;11.27;7.93;;;2.00;99.90;;;;;;4978387;28;20205;-88
2022/12/22 04:38:49;;;;;;;13.57;6.47;;;2.00;99.90;;;;;;4940228;28;20190;-90
2022/12/22 04:41:15;;;;;;;22.00;9.63;;;2.00;99.90;;;;;;4978471;28;20183;-88
2022/12/22 04:43:40;;;;;;;18.83;8.47;;;2.10;99.90;;;;;;4951983;28;20192;-88
2022/12/22 04:46:06;;;;;;;29.77;7.73;;;2.00;99.90;;;;;;4920099;29;20209;-91
2022/12/22 04:48:33;;;;;;;13.53;6.23;;;2.00;99.90;;;;;;4946298;28;20187;-88
2022/12/22 04:50:59;;;;;;;8.97;7.07;;;2.00;99.90;;;;;;4973808;28;20191;-90
2022/12/22 04:53:27;;;;;;;26.33;8.70;;;2.10;99.90;;;;;;4953609;28;20216;-89
2022/12/22 04:55:59;;;;;;;10.37;5.93;;;2.00;99.90;;;;;;4946714;28;20212;-88
2022/12/22 04:58:25;;;;;;;11.87;6.50;;;;;;;;;;4956705;28;20183;-88
2022/12/22 05:00:51;;;;;;;16.90;7.80;;;2.10;99.90;;;;;;4944671;28;20242;-90
2022/12/22 05:03:17;;;;;;;9.17;6.77;;;2.10;99.90;;;;;;4936797;28;20209;-88
2022/12/22 05:05:43;;;;;;;24.47;7.80;;;;;;;;;;4942691;28;20245;-89
2022/12/22 05:08:09;;;;;;;20.43;8.77;;;2.10;99.90;;;;;;4958235;28;20756;-88
2022/12/22 05:10:35;;;;;;;17.47;7.27;;;;;;;;;;4962905;28;20266;-88
2022/12/22 05:13:00;;;;;;;10.70;5.80;;;2.10;99.90;;;;;;4947420;29;20198;-87
2022/12/22 05:15:32;;;;;;;10.63;5.70;;;2.10;99.90;;;;;;4941744;28;20273;-87
2022/12/22 05:17:58;;;;;;;8.40;5.50;;;2.10;99.90;;;;;;4977120;28;20238;-88
2022/12/22 05:20:25;;;;;;;23.20;7.33;;;2.10;99.90;;;;;;4959353;28;20182;-89
2022/12/22 05:22:51;;;;;;;15.03;7.93;;;;;;;;;;4980715;28;20195;-91
2022/12/22 05:25:18;;;;;;;10.43;7.47;;;2.00;99.90;;;;;;4971625;28;20208;-89
2022/12/22 05:27:45;;;;;;;6.57;4.93;;;2.00;99.90;;;;;;4965373;28;20206;-91
2022/12/22 05:30:12;;;;;;;7.67;5.67;;;2.10;99.90;;;;;;4974184;28;20221;-88
2022/12/22 05:32:38;;;;;;;18.80;7.90;;;2.10;99.90;;;;;;4963597;28;20208;-88
2022/12/22 05:35:05;;;;;;;14.80;6.93;;;2.10;99.90;;;;;;4957987;28;20693;-87
2022/12/22 05:37:30;;;;;;;10.10;5.37;;;2.00;99.90;;;;;;4957527;28;20670;-87
2022/12/22 05:39:56;;;;;;;21.77;6.23;;;2.00;99.90;;;;;;4975361;28;20199;-87
2022/12/22 05:42:34;;;;;;;22.53;6.77;;;2.00;99.90;;;;;;4958025;28;20186;-88
2022/12/22 05:45:14;;;;;;;7.53;6.57;;;2.00;99.90;;;;;;4940097;28;20227;-88
2022/12/22 05:47:41;;;;;;;11.80;7.40;;;2.00;99.90;;;;;;4949798;28;20188;-88
2022/12/22 05:50:08;;;;;;;15.07;6.70;;;2.00;99.90;;;;;;4946044;28;20192;-87
2022/12/22 05:52:35;;;;;;;14.97;7.00;;;2.00;99.90;;;;;;4945065;28;20205;-90
2022/12/22 05:55:00;;;;;;;6.43;4.20;;;2.00;99.90;;;;;;4963020;28;20690;-88
2022/12/22 05:57:26;;;;;;;10.70;6.00;;;;;;;;;;4942063;28;20266;-87
2022/12/22 05:59:52;;;;;;;11.73;6.37;;;;;;;;;;4962756;28;20190;-87
2022/12/22 06:02:18;;;;;;;14.90;9.10;;;2.00;99.90;;;;;;4979786;28;20240;-87
2022/12/22 06:04:44;;;;;;;11.07;7.00;;;2.00;99.90;;;;;;4960505;28;20598;-87
2022/12/22 06:07:09;;;;;;;11.93;7.30;;;2.00;99.90;;;;;;4977712;28;20200;-87
2022/12/22 06:09:35;;;;;;;14.40;4.70;;;2.00;99.90;;;;;;4959128;28;20228;-85
2022/12/22 06:12:02;;;;;;;3.90;3.57;;;2.00;99.90;;;;;;4978611;28;20274;-88
2022/12/22 06:14:28;;;;;;;6.10;5.27;;;;;;;;;;4961019;28;20184;-88
2022/12/22 06:16:53;;;;;;;19.40;8.53;;;1.90;99.90;;;;;;4945882;28;20192;-88
2022/12/22 06:19:19;;;;;;;11.17;7.90;;;;;;;;;;4960137;28;20174;-88
2022/12/22 06:21:51;;;;;;;12.77;6.20;;;1.90;99.90;;;;;;4967245;28;20200;-88
2022/12/22 06:24:17;;;;;;;12.90;7.97;;;1.90;99.90;;;;;;4983281;28;20203;-88
2022/12/22 06:26:42;;;;;;;13.87;5.03;;;1.90;99.90;;;;;;4982297;28;20231;-88
2022/12/22 06:29:08;;;;;;;9.73;5.67;;;1.90;99.90;;;;;;4955885;28;20560;-89
2022/12/22 06:31:34;;;;;;;9.30;4.57;;;1.90;99.90;;;;;;4961262;28;20200;-89
2022/12/22 06:33:59;;;;;;;9.23;4.37;;;1.90;99.90;;;;;;4999662;28;20170;-89
2022/12/22 06:36:25;;;;;;;10.97;4.87;;;1.90;99.90;;;;;;4967227;28;20172;-87
2022/12/22 06:38:51;;;;;;;16.60;7.93;;;1.90;99.90;;;;;;4999758;28;20183;-88
2022/12/22 06:43:07;;;;;;;9.77;6.13;;;1.90;99.90;;;;;;4983351;28;20281;-88
2022/12/22 06:44:04;;;;;;;16.53;4.87;;;1.90;99.90;;;;;;4978945;28;20177;-88
2022/12/22 06:46:30;;;;;;;11.00;6.83;;;2.00;99.90;;;;;;4946853;28;20289;-88
2022/12/22 06:48:56;;;;;;;10.50;5.33;;;2.00;99.90;;;;;;4965397;28;20279;-87
2022/12/22 06:51:21;;;;;;;14.63;6.80;;;2.00;99.90;;;;;;4943211;28;20194;-88
2022/12/22 06:53:47;;;;;;;9.00;6.03;;;2.00;99.90;;;;;;4917336;28;20195;-87
2022/12/22 06:56:13;;;;;;;25.20;9.13;;;2.00;99.90;;;;;;4947959;28;20199;-88
2022/12/22 06:58:38;;;;;;;14.20;5.30;;;2.00;99.90;;;;;;4932969;28;20218;-89
2022/12/22 07:01:04;;;;;;;5.80;4.83;;;2.00;99.90;;;;;;4937922;28;20263;-88
2022/12/22 07:03:30;;;;;;;10.93;6.40;;;2.10;99.90;;;;;;4937337;28;20182;-88
2022/12/22 07:05:55;;;;;;;6.70;4.33;;;2.10;99.90;;;;;;4932292;28;20748;-88
2022/12/22 07:08:21;;;;;;;9.30;5.40;;;2.10;99.90;;;;;;4954986;28;20664;-88
2022/12/22 07:10:59;;;;;;;9.30;5.37;;;2.10;99.90;;;;;;4943374;28;20209;-87
2022/12/22 07:13:33;;;;;;;7.63;4.67;;;2.10;99.90;;;;;;4949642;28;20515;-88
2022/12/22 07:16:04;;;;;;;8.53;4.83;;;2.10;99.90;;;;;;4961800;28;20185;-88
2022/12/22 07:18:36;;;;;;;7.97;5.17;;;2.20;99.90;;;;;;4948829;28;20179;-88
2022/12/22 07:21:04;;;;;;;9.80;6.57;;;2.20;99.90;;;;;;4951835;28;20677;-88
2022/12/22 07:23:30;;;;;;;7.63;6.10;;;2.20;99.90;;;;;;4950292;28;20234;-88
2022/12/22 07:25:56;;;;;;;11.80;6.23;;;2.20;99.90;;;;;;4931113;28;20210;-87
2022/12/22 07:28:22;;;;;;;6.83;5.17;;;2.20;99.90;;;;;;4930105;28;20184;-87
2022/12/22 07:30:49;;;;;;;12.80;4.10;;;2.20;99.90;;;;;;4933783;28;20251;-87
2022/12/22 07:33:15;;;;;;;8.47;5.57;;;2.20;99.90;;;;;;4941898;28;20244;-87
2022/12/22 07:35:40;;;;;;;7.30;4.67;;;2.30;99.90;;;;;;4951963;28;20193;-87
2022/12/22 07:38:06;;;;;;;6.20;4.53;;;2.30;99.90;;;;;;4936736;28;20198;-87
2022/12/22 07:40:31;;;;;;;10.23;6.10;;;2.30;99.90;;;;;;4932565;29;20182;-87
2022/12/22 07:42:58;;;;;;;8.70;6.13;;;2.30;99.90;;;;;;4921807;29;20699;-88
2022/12/22 07:45:25;;;;;;;20.70;6.10;;;2.40;99.90;;;;;;4938296;28;20249;-89
2022/12/22 07:47:50;;;;;;;7.03;5.53;;;2.40;99.90;;;;;;4990001;28;20278;-88
2022/12/22 07:50:26;;;;;;;10.90;4.27;;;2.40;99.90;;;;;;4948266;28;20339;-89
2022/12/22 07:52:55;;;;;;;6.50;4.60;;;2.40;99.90;;;;;;4974797;28;20257;-87
2022/12/22 07:55:21;;;;;;;10.73;5.90;;;2.40;99.90;;;;;;4975780;28;20183;-87
2022/12/22 07:57:47;;;;;;;7.70;4.57;;;2.40;99.90;;;;;;4960112;28;20621;-88
2022/12/22 08:00:14;;;;;;;9.27;4.10;;;2.40;99.90;;;;;;4959822;28;20214;-89
2022/12/22 08:02:40;;;;;;;8.67;5.60;;;2.40;99.90;;;;;;4960200;28;20182;-89
2022/12/22 08:05:07;;;;;;;11.30;6.90;;;2.40;99.90;;;;;;4959805;28;20216;-88
2022/12/22 08:07:33;;;;;;;8.83;4.63;;;2.30;99.90;;;;;;4993678;28;20184;-88
2022/12/22 08:09:58;;;;;;;11.40;6.97;;;2.50;99.90;;;;;;4993999;28;20509;-88
2022/12/22 08:12:24;;;;;;;5.70;4.33;;;2.50;99.90;;;;;;4960739;28;20639;-89
2022/12/22 08:14:50;;;;;;;21.23;9.33;;;2.50;99.90;;;;;;4959718;28;20252;-89
2022/12/22 08:17:15;;;;;;;30.30;11.57;;;2.60;99.90;;;;;;4996004;28;20644;-88
2022/12/22 08:19:41;;;;;;;19.50;9.30;;;2.60;99.90;;;;;;4995913;28;20178;-88
2022/12/22 08:22:07;;;;;;;18.67;8.57;;;2.60;99.90;;;;;;4979617;28;20174;-88
2022/12/22 08:24:33;;;;;;;7.47;4.97;;;;;;;;;;5000958;28;20186;-90
2022/12/22 08:27:04;;;;;;;14.77;7.00;;;2.70;99.90;;;;;;5007481;28;20220;-88
2022/12/22 08:29:38;;;;;;;11.23;6.40;;;2.70;99.90;;;;;;5003138;28;20176;-88
2022/12/22 08:32:04;;;;;;;12.90;6.10;;;;;;;;;;4973583;28;20639;-90
2022/12/22 08:34:30;;;;;;;9.70;5.30;;;2.80;99.90;;;;;;4967628;28;20659;-89
2022/12/22 08:36:59;;;;;;;11.23;6.53;;;2.80;99.90;;;;;;4960580;28;20191;-89
2022/12/22 08:39:29;;;;;;;15.77;6.93;;;2.90;99.90;;;;;;4985900;28;20196;-89
2022/12/22 08:41:54;;;;;;;10.00;6.23;;;3.00;99.90;;;;;;4996575;28;20705;-89
2022/12/22 08:44:26;;;;;;;10.90;6.13;;;3.00;99.90;;;;;;4979015;28;20193;-89
2022/12/22 08:46:53;;;;;;;11.00;5.73;;;3.80;99.90;;;;;;4970301;28;20560;-88
2022/12/22 08:49:19;;;;;;;10.50;6.37;;;3.10;99.90;;;;;;4970636;28;20178;-88
2022/12/22 08:51:46;;;;;;;11.17;6.87;;;3.10;99.90;;;;;;4985392;28;20193;-89
2022/12/22 08:54:12;;;;;;;19.63;9.10;;;3.10;99.90;;;;;;4959391;28;20233;-88
2022/12/22 08:56:37;;;;;;;16.27;8.70;;;3.20;99.90;;;;;;4976577;28;20193;-88
2022/12/22 08:59:06;;;;;;;16.60;8.13;;;3.20;99.90;;;;;;4943454;28;20702;-89
2022/12/22 09:01:33;;;;;;;21.97;8.20;;;3.20;99.90;;;;;;4976472;28;20674;-89
2022/12/22 09:03:59;;;;;;;11.90;6.67;;;3.20;99.90;;;;;;4959410;28;20280;-89
2022/12/22 09:06:25;;;;;;;26.00;6.00;;;3.30;99.90;;;;;;4966363;28;20238;-89
2022/12/22 09:08:57;;;;;;;15.17;9.03;;;3.20;99.90;;;;;;4975641;28;20235;-89
2022/12/22 09:11:24;;;;;;;22.23;10.47;;;3.20;99.90;;;;;;4973154;28;20203;-88
2022/12/22 09:13:52;;;;;;;13.17;7.70;;;3.20;99.90;;;;;;4969851;28;20213;-88
2022/12/22 09:16:18;;;;;;;14.83;7.30;;;3.20;99.90;;;;;;4962188;28;20189;-88
2022/12/22 09:18:44;;;;;;;12.23;6.43;;;3.20;99.90;;;;;;4978300;28;20226;-89
2022/12/22 09:21:10;;;;;;;10.20;6.63;;;3.30;99.90;;;;;;4995240;28;20707;-89
2022/12/22 09:23:36;;;;;;;10.97;7.07;;;3.30;99.90;;;;;;4978408;28;20275;-87
2022/12/22 09:26:12;;;;;;;11.30;5.97;;;3.30;99.90;;;;;;4978332;28;20212;-88
2022/12/22 09:28:38;;;;;;;9.77;6.17;;;3.30;99.90;;;;;;4996686;28;20696;-89
2022/12/22 09:31:05;;;;;;;13.80;5.47;;;3.30;99.90;;;;;;4995680;28;20185;-88
2022/12/22 09:33:32;;;;;;;16.70;6.07;;;3.30;99.90;;;;;;4977573;28;20182;-89
2022/12/22 09:35:58;;;;;;;9.83;5.30;;;3.30;99.90;;;;;;4961849;28;20178;-89
2022/12/22 09:38:27;;;;;;;9.00;4.40;;;3.30;99.90;;;;;;4995033;28;20216;-89
2022/12/22 09:40:56;;;;;;;4.03;3.63;;;3.30;99.90;;;;;;4995442;28;20635;-89
2022/12/22 09:43:27;;;;;;;8.57;4.53;;;3.30;99.90;;;;;;4994751;28;20465;-88
2022/12/22 09:45:53;;;;;;;3.97;3.60;;;;;;;;;;4985430;28;20209;-88
2022/12/22 09:48:20;;;;;;;13.67;6.07;;;3.40;99.90;;;;;;4978972;28;20279;-87
2022/12/22 09:50:46;;;;;;;22.47;8.03;;;3.40;99.90;;;;;;4955535;28;20653;-89
2022/12/22 09:53:21;;;;;;;6.43;4.40;;;3.40;99.90;;;;;;4943163;28;20648;-89
2022/12/22 09:55:49;;;;;;;14.70;6.10;;;3.40;99.90;;;;;;4959392;28;20210;-89
2022/12/22 09:58:31;;;;;;;12.53;6.90;;;3.50;99.90;;;;;;4976461;28;20261;-88
2022/12/22 10:01:24;;;;;;;11.47;5.70;;;3.50;99.90;;;;;;4972076;28;20304;-89
2022/12/22 10:03:57;;;;;;;13.43;5.93;;;3.60;99.90;;;;;;4957595;29;20253;-88
2022/12/22 10:06:44;;;;;;;12.07;4.87;;;3.60;99.90;;;;;;4940102;29;20214;-89
2022/12/22 10:09:22;;;;;;;5.80;4.10;;;3.60;99.90;;;;;;4939901;29;20183;-88
2022/12/22 10:11:59;;;;;;;9.00;5.40;;;3.60;99.90;;;;;;4939891;29;20249;-87
2022/12/22 10:14:42;;;;;;;9.80;5.70;;;3.60;99.90;;;;;;4956965;29;20179;-88
2022/12/22 10:17:33;;;;;;;8.27;4.53;;;3.70;99.90;;;;;;4957064;29;20171;-89
2022/12/22 10:20:24;;;;;;;11.00;4.00;;;3.60;99.90;;;;;;4958095;28;20182;-88
2022/12/22 10:22:50;;;;;;;6.20;3.80;;;;;;;;;;4958990;28;20189;-90
2022/12/22 10:25:31;;;;;;;8.43;4.30;;;3.50;99.90;;;;;;4958779;28;20218;-87
2022/12/22 10:27:59;;;;;;;10.30;4.77;;;3.50;99.90;;;;;;4955727;28;20191;-89
2022/12/22 10:30:28;;;;;;;19.77;5.47;;;3.50;99.90;;;;;;4955292;28;20191;-89
2022/12/22 10:33:05;;;;;;;8.70;4.00;;;3.50;99.90;;;;;;4976468;28;20182;-89
2022/12/22 10:35:51;;;;;;;7.37;4.83;;;3.50;99.90;;;;;;4976310;28;20628;-89
2022/12/22 10:38:17;;;;;;;13.83;4.73;;;3.50;99.90;;;;;;4976288;28;20273;-87
2022/12/22 10:40:47;;;;;;;14.60;4.50;;;3.50;99.90;;;;;;4991408;28;20236;-90
2022/12/22 10:43:21;;;;;;;13.33;5.33;;;3.50;99.90;;;;;;4995897;28;20228;-89
2022/12/22 10:45:48;;;;;;;9.60;5.43;;;3.60;99.90;;;;;;4963129;28;20557;-88
2022/12/22 10:48:14;;;;;;;10.97;5.07;;;3.60;99.90;;;;;;4957681;28;20307;-88
2022/12/22 10:50:48;;;;;;;14.80;7.23;;;3.60;99.90;;;;;;4955777;28;20185;-88
2022/12/22 10:53:13;;;;;;;13.60;6.50;;;3.60;99.90;;;;;;4941549;28;20652;-88
2022/12/22 10:55:39;;;;;;;14.83;6.07;;;3.60;99.90;;;;;;4949486;28;20283;-89
2022/12/22 10:58:12;;;;;;;16.30;6.57;;;3.50;99.90;;;;;;4974881;28;20275;-89
2022/12/22 11:00:40;;;;;;;5.73;4.43;;;;;;;;;;4968598;28;20233;-89
2022/12/22 11:03:10;;;;;;;16.70;6.07;;;3.50;99.90;;;;;;4970278;28;20182;-89
2022/12/22 11:05:36;;;;;;;16.10;4.67;;;;;;;;;;4946318;28;20198;-87
2022/12/22 11:08:19;;;;;;;6.30;4.73;;;3.50;99.90;;;;;;4949802;28;20238;-85
2022/12/22 11:11:09;;;;;;;10.53;4.73;;;3.50;99.90;;;;;;4977670;28;20347;-88
2022/12/22 11:14:02;;;;;;;7.03;4.30;;;3.60;99.90;;;;;;4972165;28;20185;-88
2022/12/22 11:16:34;;;;;;;10.30;4.97;;;3.60;99.90;;;;;;4975319;28;20194;-88
2022/12/22 11:19:20;;;;;;;7.97;3.87;;;3.50;99.90;;;;;;4955500;28;20749;-89
2022/12/22 11:22:26;;;;;;;7.67;4.30;;;3.50;99.90;;;;;;4981106;28;20193;-89
2022/12/22 11:25:00;;;;;;;7.57;4.10;;;3.50;99.90;;;;;;4932506;29;20230;-89
2022/12/22 11:27:35;;;;;;;7.57;4.40;;;3.50;99.90;;;;;;4961603;28;20194;-87
2022/12/22 11:30:07;;;;;;;5.33;4.17;;;3.50;99.90;;;;;;4948394;28;20184;-90
2022/12/22 11:33:21;;;;;;;9.97;5.13;;;3.50;99.90;;;;;;4949103;28;20186;-90
2022/12/22 11:35:59;;;;;;;13.33;6.27;;;3.40;99.90;;;;;;4924251;28;20216;-89
2022/12/22 11:38:48;;;;;;;9.57;5.03;;;3.40;99.90;;;;;;4950552;28;20652;-90
2022/12/22 11:41:23;;;;;;;5.40;4.70;;;3.50;99.90;;;;;;4967360;28;20186;-90
2022/12/22 11:43:57;;;;;;;13.73;4.90;;;3.50;99.90;;;;;;4964193;28;20269;-90
2022/12/22 11:46:51;;;;;;;9.10;5.33;;;1.80;99.90;;;;;;4962955;28;20273;-90
2022/12/22 11:49:41;;;;;;;15.77;6.90;;;3.60;99.90;;;;;;4983548;28;20700;-89
2022/12/22 11:52:21;;;;;;;14.33;6.93;;;3.60;99.90;;;;;;4949070;28;20689;-89
2022/12/22 11:55:08;;;;;;;9.23;4.80;;;3.60;99.90;;;;;;4972299;28;20232;-89
2022/12/22 11:58:07;;;;;;;5.77;3.57;;;3.70;99.90;;;;;;4950770;28;20190;-91
2022/12/22 12:00:41;;;;;;;6.50;4.70;;;3.70;99.90;;;;;;4957390;28;20234;-89
2022/12/22 12:03:31;;;;;;;10.60;5.27;;;3.80;99.90;;;;;;4972491;28;20270;-90
2022/12/22 12:06:34;;;;;;;9.70;5.77;;;3.80;99.90;;;;;;4957244;28;20263;-90
2022/12/22 12:09:02;;;;;;;11.67;6.33;;;3.90;99.90;;;;;;4952545;28;20184;-89
2022/12/22 12:11:51;;;;;;;20.03;7.00;;;4.20;99.90;;;;;;4984643;28;20305;-89
2022/12/22 12:14:17;;;;;;;14.03;5.47;;;;;;;;;;4963187;28;20187;-90
2022/12/22 12:17:09;;;;;;;9.13;5.70;;;4.50;99.90;;;;;;4973431;28;20202;-89
2022/12/22 12:19:49;;;;;;;17.90;6.13;;;4.50;99.90;;;;;;4933709;28;20199;-89
2022/12/22 12:22:26;;;;;;;8.43;6.13;;;4.50;99.90;;;;;;4952435;28;20183;-91
2022/12/22 12:25:10;;;;;;;16.03;7.63;;;4.60;99.90;;;;;;4968933;28;20244;-90
2022/12/22 12:27:38;;;;;;;15.67;7.10;;;;;;;;;;4967662;28;20197;-90
2022/12/22 12:30:15;;;;;;;19.33;7.27;;;5.30;99.90;;;;;;4962183;28;20194;-90
2022/12/22 12:32:45;;;;;;;17.17;9.10;;;5.50;99.90;;;;;;4961264;28;20281;-90
2022/12/22 12:35:42;;;;;;;13.33;6.77;;;5.50;99.90;;;;;;4952868;28;20552;-89
2022/12/22 12:38:39;;;;;;;15.67;6.67;;;5.60;99.90;;;;;;4952565;28;20184;-88
2022/12/22 12:41:24;;;;;;;16.60;5.43;;;5.50;99.90;;;;;;4954658;28;20259;-89
2022/12/22 12:43:52;;;;;;;16.63;6.90;;;5.50;99.90;;;;;;4969329;28;20179;-90
2022/12/22 12:46:44;;;;;;;11.67;6.17;;;5.20;99.90;;;;;;4964384;28;20245;-90
2022/12/22 12:49:35;;;;;;;12.87;6.37;;;5.10;99.90;;;;;;4948707;28;20631;-89
2022/12/22 12:52:04;;;;;;;14.73;6.73;;;5.00;99.90;;;;;;4961686;28;20181;-90
2022/12/22 12:54:46;;;;;;;16.53;8.03;;;4.80;99.90;;;;;;4963584;28;20186;-92
2022/12/22 12:57:25;;;;;;;10.60;7.00;;;4.70;99.90;;;;;;4983994;28;20214;-90
2022/12/22 12:59:54;;;;;;;14.70;6.77;;;4.60;99.90;;;;;;4963590;28;20193;-91
2022/12/22 13:02:26;;;;;;;9.17;5.67;;;4.50;99.90;;;;;;4955382;28;20222;-90
2022/12/22 13:05:14;;;;;;;10.07;5.30;;;4.40;99.90;;;;;;4971920;28;20269;-90
2022/12/22 13:08:17;;;;;;;11.47;7.13;;;4.40;99.90;;;;;;4956735;28;20226;-90
2022/12/22 13:10:47;;;;;;;9.00;4.43;;;4.30;99.90;;;;;;4988837;28;20187;-91
2022/12/22 13:13:22;;;;;;;13.93;7.50;;;4.20;99.90;;;;;;4972037;28;20246;-90
2022/12/22 13:16:03;;;;;;;7.33;4.97;;;4.10;99.90;;;;;;4985548;28;20187;-90
2022/12/22 13:18:44;;;;;;;20.03;7.40;;;4.10;99.90;;;;;;4996330;28;20185;-90
2022/12/22 13:21:25;;;;;;;13.27;5.57;;;4.10;99.90;;;;;;4977900;28;20174;-89
2022/12/22 13:23:53;;;;;;;9.27;5.13;;;4.10;99.90;;;;;;4979995;28;20179;-88
2022/12/22 13:26:38;;;;;;;6.33;4.47;;;4.10;99.90;;;;;;4964619;28;20203;-88
2022/12/22 13:29:25;;;;;;;10.00;4.97;;;4.10;99.90;;;;;;4975741;28;20200;-90
2022/12/22 13:32:00;;;;;;;5.20;4.30;;;4.10;99.90;;;;;;4980836;28;20175;-90
2022/12/22 13:34:43;;;;;;;8.17;5.30;;;4.10;99.90;;;;;;4999310;28;20185;-89
2022/12/22 13:37:28;;;;;;;11.13;4.90;;;4.00;99.90;;;;;;4982153;28;20250;-90
2022/12/22 13:40:08;;;;;;;11.67;4.87;;;4.00;99.90;;;;;;4973156;28;20171;-93
2022/12/22 13:42:37;;;;;;;28.40;6.83;;;3.90;99.90;;;;;;4961364;28;20189;-89
2022/12/22 13:45:06;;;;;;;6.93;4.70;;;3.90;99.90;;;;;;4961983;28;20187;-90
2022/12/22 13:47:32;;;;;;;10.93;5.70;;;3.90;99.90;;;;;;4960341;28;20290;-89
2022/12/22 13:49:57;;;;;;;8.17;5.70;;;3.90;99.90;;;;;;4965766;28;20186;-89
2022/12/22 13:52:23;;;;;;;15.43;6.57;;;3.90;99.90;;;;;;4948528;29;20187;-89
2022/12/22 13:54:49;;;;;;;12.97;7.37;;;3.90;99.90;;;;;;4948588;29;20549;-91
2022/12/22 13:57:19;;;;;;;16.13;5.37;;;3.90;99.90;;;;;;4962018;28;20220;-90
2022/12/22 13:59:48;;;;;;;10.20;6.37;;;3.80;99.90;;;;;;4951467;28;20232;-88
2022/12/22 14:02:15;;;;;;;13.03;5.13;;;3.80;99.90;;;;;;4953496;28;20261;-89
2022/12/22 14:05:02;;;;;;;14.73;5.90;;;3.80;99.90;;;;;;4982236;28;20183;-89
2022/12/22 14:07:28;;;;;;;18.47;4.80;;;3.70;99.90;;;;;;4980493;28;20252;-90
2022/12/22 14:09:55;;;;;;;9.20;5.50;;;3.70;99.90;;;;;;4979132;28;20198;-90
2022/12/22 14:12:21;;;;;;;6.93;4.30;;;3.80;99.90;;;;;;4987546;28;20194;-90
2022/12/22 14:14:49;;;;;;;14.37;6.13;;;3.70;99.90;;;;;;4960974;28;20191;-89
2022/12/22 14:17:29;;;;;;;11.30;5.93;;;3.70;99.90;;;;;;4982231;28;20222;-90
2022/12/22 14:19:57;;;;;;;25.70;6.77;;;3.70;99.90;;;;;;4957415;28;20186;-89
2022/12/22 14:22:29;;;;;;;11.63;6.63;;;3.60;99.90;;;;;;4969621;28;20193;-89
2022/12/22 14:25:02;;;;;;;17.23;7.37;;;3.60;99.90;;;;;;4958998;28;20266;-91
2022/12/22 14:27:42;;;;;;;17.13;6.77;;;1.70;99.90;;;;;;4977194;28;20190;-89
2022/12/22 14:30:17;;;;;;;10.53;4.70;;;2.90;99.90;;;;;;4957387;28;20167;-91
2022/12/22 14:32:46;;;;;;;12.90;5.70;;;3.60;99.90;;;;;;4944469;28;20189;-91
2022/12/22 14:35:20;;;;;;;12.83;5.83;;;3.60;99.90;;;;;;4974776;28;20179;-89
2022/12/22 14:37:47;;;;;;;16.83;7.30;;;;;;;;;;4959187;28;20194;-91
2022/12/22 14:40:37;;;;;;;9.77;5.43;;;3.70;99.90;;;;;;4936478;28;20187;-90
2022/12/22 14:43:12;;;;;;;12.67;7.87;;;3.50;99.90;;;;;;4965753;28;20241;-89
2022/12/22 14:45:38;;;;;;;12.07;7.20;;;3.50;99.90;;;;;;4948193;28;20213;-90
2022/12/22 14:48:08;;;;;;;15.90;9.47;;;3.50;99.90;;;;;;4946295;28;20193;-89
2022/12/22 14:50:34;;;;;;;23.93;13.33;;;3.40;99.90;;;;;;4939406;28;20307;-88
2022/12/22 14:53:27;;;;;;;42.30;16.67;;;3.20;99.90;;;;;;5000739;27;2789906;-92
2022/12/22 14:55:53;;;;;;;36.57;15.03;;;3.30;99.90;;;;;;5082156;28;20197;-90
2022/12/22 14:58:32;;;;;;;37.63;14.83;;;3.30;99.90;;;;;;5085743;28;20196;-89
2022/12/22 15:01:37;;;;;;;17.13;9.43;;;3.20;99.90;;;;;;5082649;28;20184;-89
2022/12/22 15:04:15;;;;;;;17.10;6.30;;;3.20;99.90;;;;;;5029266;28;20196;-90
2022/12/22 15:06:44;;;;;;;9.00;6.87;;;3.10;99.90;;;;;;5030411;28;20546;-91
2022/12/22 15:09:13;;;;;;;9.37;5.73;;;3.80;99.90;;;;;;5060172;28;20199;-90
2022/12/22 15:11:45;;;;;;;13.70;6.00;;;3.10;99.90;;;;;;5096768;28;20225;-91
2022/12/22 15:14:15;;;;;;;11.03;6.93;;;3.10;99.90;;;;;;5082133;28;20190;-91
2022/12/22 15:16:41;;;;;;;11.00;6.00;;;3.10;99.90;;;;;;5073675;28;20194;-89
2022/12/22 15:19:09;;;;;;;11.30;7.13;;;3.10;99.90;;;;;;5081454;28;20254;-89
2022/12/22 15:21:35;;;;;;;11.80;7.20;;;3.00;99.90;;;;;;5084228;28;20182;-89
2022/12/22 15:24:02;;;;;;;17.30;8.07;;;3.00;99.90;;;;;;5085011;28;20247;-88
2022/12/22 15:26:28;;;;;;;35.33;18.00;;;;;;;;;;5081413;28;20191;-89
2022/12/22 15:28:54;;;;;;;35.17;14.73;;;;;;;;;;5082277;28;20281;-89
2022/12/22 15:31:24;;;;;;;17.00;8.10;;;2.90;99.90;;;;;;5084485;28;20207;-87
2022/12/22 15:33:52;;;;;;;17.13;10.33;;;;;;;;;;5088895;28;20187;-90
2022/12/22 15:36:18;;;;;;;23.60;9.27;;;;;;;;;;5081197;28;20273;-90
2022/12/22 15:38:44;;;;;;;16.50;8.47;;;;;;;;;;5087229;28;20215;-87
2022/12/22 15:41:13;;;;;;;15.53;9.03;;;;;;;;;;5089421;28;20210;-89
2022/12/22 15:43:41;;;;;;;16.33;6.70;;;;;;;;;;5074923;28;20190;-90
2022/12/22 15:46:13;;;;;;;20.87;9.13;;;3.00;99.90;;;;;;5089737;28;20187;-89
2022/12/22 15:48:41;;;;;;;18.40;9.07;;;2.90;99.90;;;;;;5092218;28;20186;-91
2022/12/22 15:51:19;;;;;;;15.70;7.67;;;2.90;99.90;;;;;;5083738;28;20195;-89
2022/12/22 15:53:45;;;;;;;13.97;7.43;;;;;;;;;;5081683;28;20232;-90
2022/12/22 15:56:20;;;;;;;21.87;10.90;;;2.90;99.90;;;;;;5067065;28;20241;-90
2022/12/22 15:58:46;;;;;;;32.80;15.20;;;;;;;;;;5086253;28;20953;-89
2022/12/22 16:01:12;;;;;;;25.10;13.00;;;;;;;;;;5081737;28;20268;-90
2022/12/22 16:03:38;;;;;;;13.80;8.77;;;2.90;99.90;;;;;;5059548;28;20196;-89
2022/12/22 16:06:08;;;;;;;18.23;9.07;;;2.90;99.90;;;;;;5055516;28;20251;-90
2022/12/22 16:08:39;;;;;;;21.33;8.27;;;2.90;99.90;;;;;;5052690;28;20183;-91
2022/12/22 16:11:06;;;;;;;17.33;9.30;;;2.90;99.90;;;;;;5073593;28;20215;-89
2022/12/22 16:13:33;;;;;;;19.37;8.70;;;;;;;;;;5073075;28;20189;-89
2022/12/22 16:15:58;;;;;;;18.37;7.27;;;3.00;99.90;;;;;;5069087;28;20225;-87
2022/12/22 16:18:25;;;;;;;10.00;6.90;;;3.00;99.90;;;;;;5052970;28;20216;-88
2022/12/22 16:20:51;;;;;;;16.90;7.30;;;3.00;99.90;;;;;;5052668;28;20280;-88
2022/12/22 16:23:20;;;;;;;16.80;7.77;;;3.00;99.90;;;;;;5048169;28;20268;-87
2022/12/22 16:25:47;;;;;;;7.07;4.53;;;3.00;99.90;;;;;;5066587;28;20189;-87
2022/12/22 16:28:27;;;;;;;43.67;18.90;;;3.10;99.90;;;;;;5068351;28;20190;-87
2022/12/22 16:30:55;;;;;;;57.87;20.97;;;3.10;99.90;;;;;;5054635;28;20212;-87
2022/12/22 16:33:21;;;;;;;69.67;24.53;;;;;;;;;;5052445;28;20619;-87
2022/12/22 16:35:47;;;;;;;12.80;7.73;;;3.20;99.90;;;;;;5073357;28;20261;-88
2022/12/22 16:38:13;;;;;;;26.70;8.33;;;3.20;99.90;;;;;;5056326;28;20293;-87
2022/12/22 16:40:49;;;;;;;99.23;34.30;;;3.20;99.90;;;;;;5035001;28;20187;-87
2022/12/22 16:43:37;;;;;;;76.93;26.00;;;3.40;99.90;;;;;;5053947;28;20290;-86
2022/12/22 16:46:05;;;;;;;115.50;31.13;;;3.20;99.90;;;;;;5073848;28;20257;-87
2022/12/22 16:48:39;;;;;;;25.53;11.50;;;3.30;99.90;;;;;;5061661;28;20218;-89
2022/12/22 16:51:05;;;;;;;45.60;19.77;;;3.30;99.90;;;;;;5072562;28;20212;-87
2022/12/22 16:53:32;;;;;;;94.27;25.07;;;;;;;;;;5072624;28;20293;-87